Time;durP1;ratioP1;P1;durP2;ratioP2;P2;SDS_P1;SDS_P2;PMS_P1;PMS_P2;Temp;Humidity;BMP_temperature;BMP_pressure;BME280_temperature;BME280_humidity;BME280_pressure;Samples;Min_cycle;Max_cycle;Signal;HPM_P1;HPM_P2
2022/04/15 00:00:56;;;;;;;27.38;18.65;;;;;;;11.20;59.75;102630.59;5193557;28;20525;-42
2022/04/15 00:03:30;;;;;;;21.65;18.33;;;;;;;11.25;59.67;102625.84;5194435;28;20439;-41
2022/04/15 00:06:09;;;;;;;24.13;17.90;;;;;;;11.29;59.73;102632.59;5194061;28;20407;-45
2022/04/15 00:08:42;;;;;;;28.45;18.08;;;;;;;11.18;59.91;102629.84;5195277;28;20525;-43
2022/04/15 00:11:14;;;;;;;25.02;18.55;;;;;;;11.02;59.99;102625.66;5192136;28;20422;-41
2022/04/15 00:13:47;;;;;;;30.42;18.38;;;;;;;10.87;60.36;102625.91;5190899;28;20423;-42
2022/04/15 00:16:19;;;;;;;24.17;18.83;;;;;;;10.83;60.38;102633.19;5196466;28;20808;-50
2022/04/15 00:18:53;;;;;;;26.20;17.52;;;;;;;10.77;60.42;102630.97;5199463;28;20498;-45
2022/04/15 00:21:26;;;;;;;27.13;18.88;;;;;;;10.69;60.45;102625.41;5190975;28;20494;-42
2022/04/15 00:23:58;;;;;;;27.20;18.77;;;;;;;10.90;60.26;102639.78;5192017;28;20412;-43
2022/04/15 00:26:31;;;;;;;25.93;17.80;;;;;;;10.97;60.23;102643.66;5190116;28;20498;-42
2022/04/15 00:29:06;;;;;;;25.73;18.52;;;;;;;10.89;60.49;102638.06;5192176;28;20385;-41
2022/04/15 00:31:38;;;;;;;27.17;18.80;;;;;;;10.92;60.47;102645.78;5191921;28;20945;-46
2022/04/15 00:34:12;;;;;;;25.20;18.05;;;;;;;10.85;60.57;102633.94;5193507;28;20409;-42
2022/04/15 00:36:44;;;;;;;25.75;17.92;;;;;;;10.79;60.68;102634.38;5196043;28;20413;-42
2022/04/15 00:39:17;;;;;;;25.33;18.00;;;;;;;10.82;60.75;102634.16;5200769;28;20506;-43
2022/04/15 00:41:49;;;;;;;25.52;17.95;;;;;;;10.85;60.42;102640.06;5194587;28;20864;-40
2022/04/15 00:44:21;;;;;;;27.35;18.45;;;;;;;10.80;60.57;102636.91;5198642;28;20418;-41
2022/04/15 00:46:54;;;;;;;23.65;18.90;;;;;;;10.80;60.63;102628.13;5199203;28;20410;-43
2022/04/15 00:49:27;;;;;;;27.45;19.13;;;;;;;10.80;61.00;102638.69;5194424;28;20442;-42
2022/04/15 00:52:01;;;;;;;25.63;18.45;;;;;;;10.75;60.89;102643.47;5194856;28;20949;-43
2022/04/15 00:54:36;;;;;;;21.30;16.58;;;;;;;10.80;60.90;102639.53;5191264;28;20413;-42
2022/04/15 00:57:36;;;;;;;24.02;15.07;;;;;;;10.90;60.84;102637.13;5194741;28;20767;-42
2022/04/15 01:00:11;;;;;;;28.92;17.75;;;;;;;10.99;60.85;102641.72;5197611;28;20506;-45
2022/04/15 01:02:45;;;;;;;32.70;18.87;;;;;;;11.05;60.72;102643.09;5190312;28;20827;-44
2022/04/15 01:05:20;;;;;;;28.75;19.38;;;;;;;11.09;60.62;102641.94;5195038;28;20565;-42
2022/04/15 01:07:55;;;;;;;39.97;20.95;;;;;;;11.21;60.59;102656.06;5192573;28;20420;-43
2022/04/15 01:10:28;;;;;;;27.13;19.20;;;;;;;11.27;60.58;102648.56;5194166;28;20419;-43
2022/04/15 01:13:07;;;;;;;29.97;18.90;;;;;;;11.31;60.65;102652.69;5192296;28;20876;-43
2022/04/15 01:15:40;;;;;;;24.77;18.38;;;;;;;11.39;60.63;102660.06;5191318;28;20419;-42
2022/04/15 01:18:13;;;;;;;30.20;19.77;;;;;;;11.40;60.55;102656.47;5197351;28;20425;-41
2022/04/15 01:20:49;;;;;;;30.20;19.43;;;;;;;11.45;60.57;102656.97;5192698;28;20429;-42
2022/04/15 01:23:23;;;;;;;33.67;19.23;;;;;;;11.46;60.39;102653.38;5196551;28;20506;-43
2022/04/15 01:25:55;;;;;;;28.48;19.20;;;;;;;11.56;60.55;102666.78;5189490;28;20414;-42
2022/04/15 01:28:28;;;;;;;28.40;18.13;;;;;;;11.61;60.48;102655.84;5190711;28;20394;-42
2022/04/15 01:31:00;;;;;;;36.33;20.90;;;;;;;11.54;60.51;102656.28;5196553;28;20409;-42
2022/04/15 01:33:33;;;;;;;31.83;16.83;;;;;;;11.51;60.52;102659.16;5194105;28;20444;-42
2022/04/15 01:36:05;;;;;;;24.27;16.60;;;;;;;11.35;60.74;102661.25;5189516;28;20497;-44
2022/04/15 01:39:04;;;;;;;25.80;16.87;;;;;;;11.07;61.38;102649.13;5192308;28;20488;-42
2022/04/15 01:41:39;;;;;;;32.25;17.58;;;;;;;10.87;61.43;102636.47;5191282;28;20411;-42
2022/04/15 01:44:15;;;;;;;29.02;18.73;;;;;;;10.89;61.37;102648.63;5199510;28;20409;-42
2022/04/15 01:46:47;;;;;;;31.27;19.33;;;;;;;10.95;61.27;102648.19;5191920;28;20406;-42
2022/04/15 01:49:20;;;;;;;25.50;16.92;;;;;;;11.05;61.19;102651.03;5188702;28;20426;-42
2022/04/15 01:51:52;;;;;;;26.98;16.95;;;;;;;11.15;60.97;102659.16;5196616;28;20508;-42
2022/04/15 01:54:27;;;;;;;26.98;16.50;;;;;;;11.21;60.76;102649.00;5190967;28;20413;-46
2022/04/15 01:57:00;;;;;;;29.88;16.65;;;;;;;11.27;60.88;102658.28;5193735;28;20926;-42
2022/04/15 01:59:32;;;;;;;22.23;14.63;;;;;;;11.24;60.93;102663.78;5200155;28;20417;-42
2022/04/15 02:02:06;;;;;;;28.13;16.47;;;;;;;11.04;61.17;102652.84;5187584;28;20518;-42
2022/04/15 02:04:39;;;;;;;29.98;16.02;;;;;;;11.04;61.08;102662.56;5195930;28;20491;-42
2022/04/15 02:07:11;;;;;;;27.77;15.82;;;;;;;11.00;61.24;102669.88;5191815;28;20505;-43
2022/04/15 02:09:45;;;;;;;33.00;16.70;;;;;;;11.02;61.29;102670.59;5195685;28;21069;-43
2022/04/15 02:12:17;;;;;;;26.83;15.02;;;;;;;11.08;61.15;102666.69;5188923;28;20832;-41
2022/04/15 02:14:50;;;;;;;24.23;14.65;;;;;;;11.08;61.20;102662.22;5193474;28;20512;-46
2022/04/15 02:17:22;;;;;;;21.60;13.50;;;;;;;11.17;61.11;102670.47;5189624;28;20429;-42
2022/04/15 02:19:55;;;;;;;22.80;12.77;;;;;;;11.21;61.08;102679.88;5188548;28;20414;-43
2022/04/15 02:22:30;;;;;;;21.73;12.50;;;;;;;11.32;60.94;102674.69;5192507;28;20883;-42
2022/04/15 02:25:06;;;;;;;22.17;11.55;;;;;;;11.33;61.03;102676.38;5188783;28;20447;-43
2022/04/15 02:27:38;;;;;;;17.13;11.23;;;;;;;11.37;61.03;102688.44;5198044;28;20400;-42
2022/04/15 02:30:11;;;;;;;19.50;11.05;;;;;;;11.30;61.13;102679.22;5195550;28;20811;-42
2022/04/15 02:32:44;;;;;;;15.05;10.10;;;;;;;11.09;61.38;102668.41;5192064;28;20812;-42
2022/04/15 02:35:16;;;;;;;13.23;10.35;;;;;;;11.06;61.61;102680.03;5206826;28;20793;-42
2022/04/15 02:37:48;;;;;;;18.00;10.98;;;;;;;10.71;61.73;102641.97;5203743;28;20508;-41
2022/04/15 02:40:23;;;;;;;17.65;10.25;;;;;;;10.89;61.89;102683.00;5192034;28;20432;-41
2022/04/15 02:42:55;;;;;;;14.90;10.10;;;;;;;10.65;62.05;102669.66;5198834;28;20492;-42
2022/04/15 02:45:29;;;;;;;16.20;10.82;;;;;;;10.64;62.11;102677.72;5194892;28;20414;-42
2022/04/15 02:48:01;;;;;;;16.45;10.65;;;;;;;10.58;62.13;102690.38;5195484;28;20417;-42
2022/04/15 02:50:34;;;;;;;19.55;10.98;;;;;;;10.55;62.11;102685.31;5187835;28;20450;-43
2022/04/15 02:53:07;;;;;;;16.83;10.32;;;;;;;10.64;62.02;102688.28;5196402;28;20416;-45
2022/04/15 02:55:40;;;;;;;17.90;10.68;;;;;;;10.72;61.88;102696.53;5197687;28;20451;-41
2022/04/15 02:58:13;;;;;;;17.20;10.30;;;;;;;10.75;61.75;102691.06;5201292;28;20421;-43
2022/04/15 03:00:45;;;;;;;16.95;10.90;;;;;;;10.79;61.66;102696.00;5201891;28;20876;-42
2022/04/15 03:03:19;;;;;;;19.80;11.18;;;;;;;10.79;61.69;102681.94;5200384;28;20873;-42
2022/04/15 03:05:51;;;;;;;18.08;10.82;;;;;;;10.87;61.74;102690.22;5203780;28;20505;-42
2022/04/15 03:08:23;;;;;;;18.65;11.02;;;;;;;10.76;61.81;102692.72;5202676;28;20396;-42
2022/04/15 03:11:00;;;;;;;20.42;10.68;;;;;;;10.61;62.11;102695.47;5200523;28;20880;-41
2022/04/15 03:13:32;;;;;;;20.92;11.23;;;;;;;10.59;62.22;102696.50;5195333;28;20905;-43
2022/04/15 03:16:05;;;;;;;19.10;11.43;;;;;;;10.63;62.05;102698.00;5193347;28;20752;-43
2022/04/15 03:18:38;;;;;;;15.43;10.57;;;;;;;10.75;61.89;102696.34;5193458;28;20506;-42
2022/04/15 03:21:10;;;;;;;17.40;9.32;;;;;;;10.47;61.70;102639.25;5194047;28;20706;-42
2022/04/15 03:23:43;;;;;;;14.00;10.60;;;;;;;10.68;61.83;102692.41;5206021;28;20430;-43
2022/04/15 03:26:16;;;;;;;14.02;10.05;;;;;;;10.77;61.78;102703.19;5192053;28;20449;-41
2022/04/15 03:28:49;;;;;;;16.52;9.88;;;;;;;10.84;61.56;102687.78;5202447;28;20411;-41
2022/04/15 03:31:22;;;;;;;14.37;9.83;;;;;;;10.87;61.52;102695.50;5193874;28;20419;-41
2022/04/15 03:33:54;;;;;;;16.08;10.10;;;;;;;10.96;61.28;102700.16;5200477;28;20743;-41
2022/04/15 03:36:27;;;;;;;13.43;9.23;;;;;;;11.05;61.17;102710.03;5194746;28;20482;-41
2022/04/15 03:38:59;;;;;;;18.67;9.60;;;;;;;11.09;61.16;102705.41;5198526;28;20869;-41
2022/04/15 03:41:33;;;;;;;15.77;9.57;;;;;;;11.06;61.13;102701.19;5195469;28;20405;-42
2022/04/15 03:44:06;;;;;;;14.35;9.57;;;;;;;11.07;61.03;102708.16;5191929;28;20891;-43
2022/04/15 03:46:40;;;;;;;15.48;10.38;;;;;;;10.97;61.09;102696.53;5192262;28;20394;-41
2022/04/15 03:49:12;;;;;;;13.32;9.80;;;;;;;10.93;61.12;102710.94;5192380;28;20413;-41
2022/04/15 03:51:45;;;;;;;14.10;10.02;;;;;;;10.89;61.25;102708.59;5191801;28;20418;-41
2022/04/15 03:54:17;;;;;;;17.02;10.07;;;;;;;10.88;60.93;102714.84;5194774;28;20492;-41
2022/04/15 03:56:51;;;;;;;18.85;10.75;;;;;;;10.79;61.12;102719.78;5194258;28;20432;-43
2022/04/15 03:59:23;;;;;;;17.55;10.52;;;;;;;10.74;61.18;102719.25;5193533;28;20511;-42
2022/04/15 04:01:56;;;;;;;19.02;11.30;;;;;;;10.70;61.20;102720.41;5195752;28;20490;-41
2022/04/15 04:04:28;;;;;;;18.40;11.65;;;;;;;10.61;61.11;102706.03;5200981;28;20405;-43
2022/04/15 04:07:00;;;;;;;20.83;11.00;;;;;;;10.62;61.11;102725.38;5192495;28;20416;-42
2022/04/15 04:09:33;;;;;;;19.13;12.83;;;;;;;10.60;61.03;102725.47;5197871;28;20506;-42
2022/04/15 04:12:08;;;;;;;17.77;11.73;;;;;;;10.57;61.00;102715.13;5186956;28;20498;-42
2022/04/15 04:14:42;;;;;;;19.43;11.50;;;;;;;10.61;60.93;102727.16;5194212;28;20423;-42
2022/04/15 04:17:15;;;;;;;18.60;11.68;;;;;;;10.57;60.78;102724.84;5192321;28;20418;-41
2022/04/15 04:19:47;;;;;;;22.73;11.80;;;;;;;10.64;60.78;102741.13;5194927;28;20634;-43
2022/04/15 04:22:20;;;;;;;18.17;11.20;;;;;;;10.64;60.71;102741.13;5193001;28;20421;-44
2022/04/15 04:24:52;;;;;;;17.95;11.93;;;;;;;10.64;60.70;102733.22;5196717;28;20854;-41
2022/04/15 04:27:26;;;;;;;22.90;11.80;;;;;;;10.62;60.66;102733.28;5200720;28;20494;-44
2022/04/15 04:29:58;;;;;;;16.90;11.10;;;;;;;10.66;60.69;102745.38;5190373;28;20425;-42
2022/04/15 04:32:31;;;;;;;13.77;10.57;;;;;;;10.69;60.67;102744.31;5193407;28;20411;-41
2022/04/15 04:35:05;;;;;;;21.15;11.13;;;;;;;10.73;60.68;102751.09;5187693;28;20941;-42
2022/04/15 04:37:38;;;;;;;15.63;10.02;;;;;;;10.74;60.64;102758.06;5187424;28;20490;-43
2022/04/15 04:40:11;;;;;;;16.05;9.40;;;;;;;10.69;60.66;102754.91;5190735;28;20525;-41
2022/04/15 04:42:47;;;;;;;13.23;8.37;;;;;;;10.67;60.74;102759.44;5192131;28;20410;-42
2022/04/15 04:45:19;;;;;;;13.25;8.45;;;;;;;10.57;61.04;102751.28;5192599;28;20911;-42
2022/04/15 04:47:53;;;;;;;19.08;10.10;;;;;;;10.46;61.12;102759.06;5189112;28;20867;-41
2022/04/15 04:50:26;;;;;;;18.98;8.50;;;;;;;10.32;61.13;102752.06;5192203;28;20405;-42
2022/04/15 04:52:59;;;;;;;18.15;8.93;;;;;;;10.26;61.40;102752.44;5188276;28;20828;-43
2022/04/15 04:55:31;;;;;;;19.92;9.02;;;;;;;10.23;61.30;102758.75;5184739;28;20951;-43
2022/04/15 04:58:05;;;;;;;16.92;9.93;;;;;;;10.19;61.40;102772.25;5184165;28;20764;-41
2022/04/15 05:00:38;;;;;;;14.20;9.05;;;;;;;10.13;61.50;102778.78;5197386;28;20410;-43
2022/04/15 05:03:11;;;;;;;16.10;8.95;;;;;;;10.08;61.40;102773.78;5202841;28;20505;-45
2022/04/15 05:05:44;;;;;;;16.95;9.27;;;;;;;10.04;61.36;102767.03;5191704;28;20506;-42
2022/04/15 05:08:16;;;;;;;14.43;9.85;;;;;;;10.03;61.44;102775.88;5192369;28;20432;-42
2022/04/15 05:10:48;;;;;;;14.07;9.40;;;;;;;9.98;61.62;102771.84;5206886;28;20927;-41
2022/04/15 05:13:22;;;;;;;16.05;8.60;;;;;;;10.11;61.52;102791.22;5216309;28;20431;-41
2022/04/15 05:15:55;;;;;;;14.43;8.55;;;;;;;10.16;61.25;102800.56;5209392;28;20489;-42
2022/04/15 05:18:27;;;;;;;18.50;9.02;;;;;;;10.19;61.34;102798.66;5208457;28;20488;-41
2022/04/15 05:20:59;;;;;;;14.38;8.93;;;;;;;10.19;61.35;102796.00;5192449;28;20816;-41
2022/04/15 05:23:32;;;;;;;13.65;8.73;;;;;;;10.24;61.22;102800.03;5187696;28;21284;-41
2022/04/15 05:26:04;;;;;;;18.20;8.63;;;;;;;10.32;61.01;102807.53;5187858;28;20411;-39
2022/04/15 05:28:38;;;;;;;12.02;8.48;;;;;;;10.41;61.08;102809.56;5192005;28;20406;-41
2022/04/15 05:31:11;;;;;;;12.73;7.88;;;;;;;10.43;60.88;102806.81;5190762;28;20433;-41
2022/04/15 05:33:44;;;;;;;17.07;8.60;;;;;;;10.51;60.88;102809.81;5190580;28;20850;-42
2022/04/15 05:36:17;;;;;;;10.38;8.60;;;;;;;10.54;60.96;102814.88;5200669;28;20435;-42
2022/04/15 05:38:49;;;;;;;11.57;8.30;;;;;;;10.57;61.00;102815.53;5198729;28;20431;-42
2022/04/15 05:41:22;;;;;;;13.70;8.00;;;;;;;10.57;60.99;102801.47;5191029;28;20434;-44
2022/04/15 05:43:58;;;;;;;16.50;8.88;;;;;;;10.75;60.82;102823.19;5194695;28;20407;-44
2022/04/15 05:46:31;;;;;;;26.17;8.45;;;;;;;10.78;60.65;102820.34;5193809;28;20490;-44
2022/04/15 05:49:03;;;;;;;18.25;8.55;;;;;;;10.88;60.68;102834.63;5193179;28;20410;-44
2022/04/15 05:51:36;;;;;;;15.95;8.13;;;;;;;10.80;60.78;102823.72;5187729;28;20427;-45
2022/04/15 05:54:08;;;;;;;9.93;6.30;;;;;;;10.81;60.87;102834.19;5187223;28;20442;-44
2022/04/15 05:56:41;;;;;;;12.35;6.97;;;;;;;10.77;61.08;102837.97;5187309;28;20512;-45
2022/04/15 05:59:14;;;;;;;10.63;6.95;;;;;;;10.73;61.27;102840.94;5191432;28;20498;-43
2022/04/15 06:01:47;;;;;;;12.98;7.43;;;;;;;10.71;61.23;102826.97;5199867;28;20438;-46
2022/04/15 06:04:19;;;;;;;12.85;7.35;;;;;;;10.68;61.23;102828.00;5206723;28;20429;-44
2022/04/15 06:07:32;;;;;;;11.30;6.40;;;;;;;10.84;61.08;102844.56;5192919;28;20410;-46
2022/04/15 06:10:05;;;;;;;8.20;6.15;;;;;;;11.27;60.71;102851.38;5192681;28;20496;-42
2022/04/15 06:15:28;;;;;;;9.88;5.55;;;;;;;14.64;57.33;102852.47;5188721;28;20494;-48
2022/04/15 06:18:02;;;;;;;8.40;4.40;;;;;;;16.14;55.95;102850.22;5189233;28;20437;-47
2022/04/15 06:20:41;;;;;;;6.57;3.17;;;;;;;17.02;55.15;102856.44;5193128;28;20422;-44
2022/04/15 06:23:13;;;;;;;7.80;4.07;;;;;;;17.08;54.93;102860.34;5189738;28;20414;-46
2022/04/15 06:25:46;;;;;;;7.82;4.75;;;;;;;17.03;54.83;102852.78;5191732;28;20421;-50
2022/04/15 06:28:21;;;;;;;6.80;4.10;;;;;;;17.05;54.38;102861.47;5191020;28;20430;-48
2022/04/15 06:30:57;;;;;;;9.48;4.80;;;;;;;17.02;54.08;102861.75;5191148;28;20500;-51
2022/04/15 06:33:29;;;;;;;8.25;4.13;;;;;;;17.49;53.30;102869.78;5195231;28;20407;-46
2022/04/15 06:36:02;;;;;;;7.82;4.40;;;;;;;17.83;52.40;102865.75;5191558;28;20539;-51
2022/04/15 06:38:34;;;;;;;6.78;4.13;;;;;;;18.55;51.22;102866.69;5189773;28;20527;-44
2022/04/15 06:41:07;;;;;;;7.15;3.83;;;;;;;18.67;50.67;102877.06;5188199;28;21138;-45
2022/04/15 06:43:40;;;;;;;7.78;4.10;;;;;;;19.00;49.92;102882.69;5187195;28;20934;-47
2022/04/15 06:46:13;;;;;;;6.07;2.30;;;;;;;19.11;49.21;102873.59;5190973;28;20512;-50
2022/04/15 06:48:46;;;;;;;5.93;3.55;;;;;;;18.02;49.50;102806.00;5194908;28;20454;-51
2022/04/15 06:51:18;;;;;;;5.45;3.30;;;;;;;17.69;50.08;102881.28;5199043;28;20417;-49
2022/04/15 06:53:51;;;;;;;6.38;3.92;;;;;;;17.03;50.27;102887.50;5191038;28;20431;-47
2022/04/15 06:56:23;;;;;;;6.93;4.35;;;;;;;16.30;50.58;102875.50;5187766;28;20426;-50
2022/04/15 06:58:55;;;;;;;8.07;4.30;;;;;;;15.81;50.85;102882.50;5194491;28;20415;-51
2022/04/15 07:01:30;;;;;;;6.53;4.47;;;;;;;15.47;51.17;102885.41;5190995;28;20924;-49
2022/04/15 07:04:03;;;;;;;9.82;4.97;;;;;;;15.06;51.31;102884.44;5195406;28;20514;-50
2022/04/15 07:06:36;;;;;;;6.20;4.18;;;;;;;15.02;51.31;102887.47;5179420;28;20589;-51
2022/04/15 07:09:08;;;;;;;6.50;4.75;;;;;;;14.91;51.15;102907.84;5194339;28;20505;-47
2022/04/15 07:11:40;;;;;;;12.15;4.60;;;;;;;14.64;51.23;102883.53;5192760;28;21115;-50
2022/04/15 07:14:13;;;;;;;6.18;4.00;;;;;;;14.71;51.20;102890.91;5188486;28;20472;-48
2022/04/15 07:16:47;;;;;;;7.38;3.70;;;;;;;14.72;50.94;102897.91;5193064;28;20516;-46
2022/04/15 07:19:21;;;;;;;7.45;4.65;;;;;;;14.34;51.14;102886.84;5188330;28;20842;-49
2022/04/15 07:21:53;;;;;;;7.80;4.27;;;;;;;13.97;51.49;102897.81;5193537;28;20450;-48
2022/04/15 07:24:27;;;;;;;7.15;3.60;;;;;;;14.28;51.63;102905.00;5190520;28;20411;-48
2022/04/15 07:26:59;;;;;;;8.65;3.67;;;;;;;15.05;50.56;102904.06;5189118;28;20432;-49
2022/04/15 07:29:32;;;;;;;6.13;3.17;;;;;;;15.15;50.26;102893.47;5195075;28;20512;-47
2022/04/15 07:32:07;;;;;;;5.45;2.55;;;;;;;14.86;50.41;102901.22;5192507;28;20418;-48
2022/04/15 07:34:40;;;;;;;7.27;2.93;;;;;;;14.71;50.43;102911.31;5191783;28;20427;-48
2022/04/15 07:37:12;;;;;;;8.20;3.33;;;;;;;14.62;50.33;102912.94;5188304;28;20443;-48
2022/04/15 07:39:45;;;;;;;5.73;2.63;;;;;;;14.36;50.51;102922.13;5186327;28;20433;-50
2022/04/15 07:42:17;;;;;;;6.20;3.00;;;;;;;14.07;50.80;102912.03;5166805;28;20436;-47
2022/04/15 07:44:50;;;;;;;8.30;2.58;;;;;;;13.92;51.06;102910.59;5191569;28;20453;-49
2022/04/15 07:47:24;;;;;;;8.25;3.10;;;;;;;13.60;51.16;102909.50;5193608;28;20425;-49
2022/04/15 07:49:56;;;;;;;4.72;2.65;;;;;;;13.64;51.16;102907.44;5192270;28;20927;-47
2022/04/15 07:52:29;;;;;;;6.25;2.42;;;;;;;13.91;50.69;102911.56;5192799;28;20438;-49
2022/04/15 07:55:01;;;;;;;4.30;2.30;;;;;;;14.02;50.62;102919.53;5190938;28;20914;-48
2022/04/15 07:57:34;;;;;;;2.17;1.98;;;;;;;13.92;50.58;102926.53;5194324;28;20476;-47
2022/04/15 08:00:09;;;;;;;3.25;2.20;;;;;;;13.52;50.87;102924.31;5195053;28;20419;-48
2022/04/15 08:02:43;;;;;;;2.75;2.10;;;;;;;13.25;51.06;102920.16;5191422;28;20430;-45
2022/04/15 08:05:16;;;;;;;3.43;2.33;;;;;;;13.05;51.36;102926.94;5190850;28;20732;-45
2022/04/15 08:07:50;;;;;;;6.37;3.07;;;;;;;13.01;51.44;102919.34;5189408;28;20541;-46
2022/04/15 08:10:23;;;;;;;4.88;2.65;;;;;;;13.04;51.42;102921.75;5188006;28;20788;-46
2022/04/15 08:12:55;;;;;;;3.50;2.85;;;;;;;13.03;51.24;102925.34;5189016;28;20729;-47
2022/04/15 08:15:31;;;;;;;5.07;2.80;;;;;;;13.00;51.10;102925.56;5189110;28;20437;-52
2022/04/15 08:18:06;;;;;;;7.30;3.47;;;;;;;12.89;51.26;102927.22;5187813;28;20772;-45
2022/04/15 08:20:38;;;;;;;4.78;3.50;;;;;;;12.95;51.40;102925.94;5184234;28;20494;-49
2022/04/15 08:23:10;;;;;;;5.82;2.90;;;;;;;12.88;51.33;102925.56;5188480;28;20740;-45
2022/04/15 08:25:43;;;;;;;4.53;3.05;;;;;;;12.91;51.37;102935.06;5185878;28;21219;-46
2022/04/15 08:28:16;;;;;;;7.43;3.58;;;;;;;13.07;51.40;102924.19;5185028;28;20461;-52
2022/04/15 08:30:48;;;;;;;5.18;3.13;;;;;;;13.34;51.10;102929.22;5188394;28;20433;-49
2022/04/15 08:33:23;;;;;;;3.20;2.63;;;;;;;13.44;50.98;102924.06;5186388;28;20857;-50
2022/04/15 08:35:56;;;;;;;3.67;2.80;;;;;;;13.39;51.25;102924.41;5186708;28;20943;-49
2022/04/15 08:38:28;;;;;;;5.07;4.07;;;;;;;13.29;51.42;102921.63;5186537;28;20445;-46
2022/04/15 08:41:01;;;;;;;5.97;3.78;;;;;;;13.28;51.51;102913.75;5185749;28;20419;-52
2022/04/15 08:43:33;;;;;;;5.13;3.38;;;;;;;13.36;51.43;102922.00;5191230;28;20403;-47
2022/04/15 08:46:07;;;;;;;4.88;3.88;;;;;;;13.56;51.48;102916.00;5183188;28;20424;-52
2022/04/15 08:48:41;;;;;;;6.82;3.45;;;;;;;13.66;51.26;102926.75;5192478;28;20525;-50
2022/04/15 08:51:16;;;;;;;4.90;3.75;;;;;;;13.56;51.38;102925.75;5191262;28;20903;-48
2022/04/15 08:53:54;;;;;;;5.40;3.60;;;;;;;13.54;51.39;102922.41;5193202;28;20951;-49
2022/04/15 08:56:26;;;;;;;4.40;3.40;;;;;;;13.60;51.27;102929.91;5192079;28;20427;-50
2022/04/15 08:58:59;;;;;;;9.60;4.00;;;;;;;13.56;51.32;102929.28;5193682;28;20990;-52
2022/04/15 09:01:32;;;;;;;5.03;3.70;;;;;;;13.54;51.25;102941.00;5193012;28;20464;-49
2022/04/15 09:04:07;;;;;;;5.13;3.08;;;;;;;13.72;51.32;102944.88;5193402;28;20443;-44
2022/04/15 09:06:43;;;;;;;9.10;3.93;;;;;;;13.68;51.50;102937.25;5189845;28;20623;-48
2022/04/15 09:09:16;;;;;;;3.75;2.78;;;;;;;13.87;51.46;102941.97;5191595;28;20426;-49
2022/04/15 09:11:50;;;;;;;7.57;2.67;;;;;;;14.12;51.12;102941.75;5186142;28;20437;-49
2022/04/15 09:14:22;;;;;;;6.55;2.28;;;;;;;14.47;50.64;102936.25;5187541;28;20438;-47
2022/04/15 09:16:55;;;;;;;4.55;2.90;;;;;;;14.82;50.39;102953.00;5187290;28;20429;-45
2022/04/15 09:19:30;;;;;;;4.32;2.53;;;;;;;14.83;50.26;102960.00;5188966;28;20541;-46
2022/04/15 09:22:03;;;;;;;8.90;3.10;;;;;;;14.92;50.07;102956.59;5185278;28;20437;-45
2022/04/15 09:24:37;;;;;;;3.92;2.40;;;;;;;15.01;49.87;102971.78;5185002;28;20870;-52
2022/04/15 09:27:09;;;;;;;6.13;2.28;;;;;;;15.06;49.76;102968.78;5187104;28;20465;-49
2022/04/15 09:29:42;;;;;;;5.65;2.78;;;;;;;14.96;49.87;102968.69;5187078;28;20424;-49
2022/04/15 09:32:17;;;;;;;5.45;2.58;;;;;;;14.83;50.05;102968.81;5194652;28;20437;-48
2022/04/15 09:34:59;;;;;;;5.18;2.70;;;;;;;14.65;50.07;102965.88;5183990;28;20437;-51
2022/04/15 09:37:38;;;;;;;9.70;3.03;;;;;;;14.68;49.95;102975.41;5187402;28;20506;-50
2022/04/15 09:40:13;;;;;;;4.70;2.50;;;;;;;14.67;49.86;102974.56;5184422;28;20843;-50
2022/04/15 09:42:48;;;;;;;4.70;3.00;;;;;;;14.60;49.75;102968.06;5189239;28;20460;-52
2022/04/15 09:45:23;;;;;;;5.28;3.22;;;;;;;14.40;50.01;102966.09;5186074;28;20784;-49
2022/04/15 09:47:57;;;;;;;5.80;3.42;;;;;;;14.21;50.12;102966.72;5191260;28;20567;-48
2022/04/15 09:50:34;;;;;;;5.45;3.55;;;;;;;14.09;50.27;102973.88;5188571;28;20502;-49
2022/04/15 09:53:13;;;;;;;8.38;3.88;;;;;;;14.17;50.04;102976.75;5187801;28;20427;-51
2022/04/15 09:55:47;;;;;;;7.50;3.92;;;;;;;14.40;49.92;102972.28;5188173;28;20421;-50
2022/04/15 09:58:23;;;;;;;8.93;3.75;;;;;;;14.62;49.61;102976.75;5184567;28;20532;-50
2022/04/15 10:00:59;;;;;;;7.40;3.63;;;;;;;14.81;49.45;102983.25;5187613;28;20829;-49
2022/04/15 10:03:38;;;;;;;9.82;4.20;;;;;;;14.79;49.55;102975.38;5187380;28;20883;-46
2022/04/15 10:06:13;;;;;;;12.02;4.00;;;;;;;14.73;49.66;102984.69;5181388;28;20488;-49
2022/04/15 10:08:46;;;;;;;12.88;5.47;;;;;;;14.36;49.74;102943.41;5194248;28;20417;-50
2022/04/15 10:11:20;;;;;;;6.68;4.03;;;;;;;14.50;49.95;102983.88;5198913;28;20800;-49
2022/04/15 10:13:53;;;;;;;9.88;4.72;;;;;;;14.53;49.88;102972.19;5192414;28;20462;-49
2022/04/15 10:16:26;;;;;;;7.35;4.00;;;;;;;14.58;49.76;102983.28;5192047;28;20418;-48
2022/04/15 10:19:01;;;;;;;11.13;4.70;;;;;;;14.45;50.13;102985.22;5194546;28;20409;-46
2022/04/15 10:21:38;;;;;;;11.88;5.45;;;;;;;14.46;50.18;102989.53;5189410;28;20434;-46
2022/04/15 10:24:11;;;;;;;11.43;5.15;;;;;;;14.43;50.20;102972.06;5190342;28;20413;-46
2022/04/15 10:26:46;;;;;;;13.07;5.67;;;;;;;14.40;50.16;102961.66;5190345;28;20428;-47
2022/04/15 10:29:18;;;;;;;9.50;4.90;;;;;;;14.51;50.21;102982.94;5185993;28;20979;-49
2022/04/15 10:31:52;;;;;;;11.43;5.17;;;;;;;14.45;50.30;102986.03;5190141;28;20464;-48
2022/04/15 10:34:25;;;;;;;10.00;4.82;;;;;;;14.40;50.51;102987.38;5191420;28;20433;-45
2022/04/15 10:36:59;;;;;;;7.85;5.60;;;;;;;14.36;50.69;102991.25;5190609;28;20667;-48
2022/04/15 10:39:45;;;;;;;8.65;5.20;;;;;;;14.18;50.88;102994.38;5198354;28;20421;-46
2022/04/15 10:42:22;;;;;;;8.13;5.15;;;;;;;13.99;50.99;102994.16;5199779;28;20478;-46
2022/04/15 10:45:01;;;;;;;8.87;5.37;;;;;;;13.91;51.13;102993.91;5208483;28;22380;-45
2022/04/15 10:47:34;;;;;;;8.80;6.07;;;;;;;13.81;51.32;102986.66;5199396;28;20410;-49
2022/04/15 10:50:08;;;;;;;9.18;6.30;;;;;;;13.70;51.48;102977.81;5187289;28;20927;-52
2022/04/15 10:52:42;;;;;;;8.95;5.80;;;;;;;13.80;51.41;102982.28;5188980;28;20473;-51
2022/04/15 10:55:16;;;;;;;7.90;5.80;;;;;;;13.95;51.28;102993.53;5188886;28;20414;-47
2022/04/15 10:57:48;;;;;;;11.07;7.53;;;;;;;13.93;51.32;102981.34;5200185;28;20600;-46
2022/04/15 11:03:22;;;;;;;9.55;6.10;;;;;;;14.01;51.04;102992.22;5196860;28;20413;-47
2022/04/15 11:05:57;;;;;;;7.97;5.90;;;;;;;14.07;51.26;102995.25;5194214;28;20421;-48
2022/04/15 11:08:46;;;;;;;9.90;5.70;;;;;;;14.21;51.27;102988.00;5183414;28;20494;-46
2022/04/15 11:11:32;;;;;;;7.85;5.43;;;;;;;14.43;51.02;102988.00;5193095;28;20506;-45
2022/04/15 11:14:08;;;;;;;10.10;5.40;;;;;;;14.44;50.85;102986.19;5195057;28;20422;-49
2022/04/15 11:16:47;;;;;;;8.02;5.22;;;;;;;14.35;50.92;102979.78;5188647;28;20953;-49
2022/04/15 11:19:24;;;;;;;8.02;5.13;;;;;;;14.35;51.14;102984.25;5195773;28;20430;-45
2022/04/15 11:21:56;;;;;;;9.30;5.28;;;;;;;14.30;51.21;102987.25;5209829;28;20424;-46
2022/04/15 11:24:32;;;;;;;12.68;6.32;;;;;;;14.20;51.33;102987.16;5198438;28;20450;-47
2022/04/15 11:27:05;;;;;;;10.45;6.13;;;;;;;14.16;51.56;102995.50;5191550;28;20903;-49
2022/04/15 11:29:40;;;;;;;9.15;6.03;;;;;;;14.10;51.50;102988.00;5188860;28;20883;-45
2022/04/15 11:32:13;;;;;;;12.77;5.65;;;;;;;14.17;51.42;102998.03;5190096;28;20407;-49
2022/04/15 11:34:45;;;;;;;8.18;5.70;;;;;;;14.07;51.43;102966.03;5189486;28;20422;-49
2022/04/15 11:37:18;;;;;;;6.90;5.38;;;;;;;14.18;51.34;102999.72;5190653;28;20490;-47
2022/04/15 11:39:51;;;;;;;9.98;6.30;;;;;;;14.23;51.27;103000.19;5189221;28;20915;-50
2022/04/15 11:42:24;;;;;;;10.05;6.75;;;;;;;14.21;51.22;102996.81;5191927;28;20422;-48
2022/04/15 11:44:56;;;;;;;8.47;5.93;;;;;;;14.29;51.23;103002.38;5188949;28;20846;-46
2022/04/15 11:47:29;;;;;;;9.20;5.10;;;;;;;14.29;51.17;103005.03;5187216;28;20935;-53
2022/04/15 11:50:02;;;;;;;7.43;5.00;;;;;;;14.29;51.35;103013.00;5190023;28;20882;-48
2022/04/15 11:52:34;;;;;;;6.95;5.13;;;;;;;14.34;51.20;103014.44;5190117;28;20966;-48